Time;durP1;ratioP1;P1;durP2;ratioP2;P2;SDS_P1;SDS_P2;PMS_P1;PMS_P2;Temp;Humidity;BMP_temperature;BMP_pressure;BME280_temperature;BME280_humidity;BME280_pressure;Samples;Min_cycle;Max_cycle;Signal;HPM_P1;HPM_P2
2023/03/26 00:00:49;;;;;;;;;;;;;;;22.72;54.12;96304.28;588407;241;68835;-63
2023/03/26 00:03:19;;;;;;;;;;;;;;;22.71;53.58;96300.03;588364;239;68397;-63
2023/03/26 00:05:47;;;;;;;;;;;;;;;22.71;52.52;96305.39;588421;241;67741;-63
2023/03/26 00:08:15;;;;;;;;;;;;;;;22.71;52.88;96313.42;588467;241;68870;-63
2023/03/26 00:10:43;;;;;;;;;;;;;;;22.71;52.77;96329.50;588391;241;68904;-63
2023/03/26 00:13:11;;;;;;;;;;;;;;;22.71;52.31;96323.35;588415;241;65033;-63
2023/03/26 00:15:39;;;;;;;;;;;;;;;22.71;53.39;96342.09;588406;241;68692;-63
2023/03/26 00:18:08;;;;;;;;;;;;;;;22.70;52.93;96345.84;588397;241;66708;-63
2023/03/26 00:20:37;;;;;;;;;;;;;;;22.69;53.68;96337.03;588451;241;65092;-63
2023/03/26 00:23:04;;;;;;;;;;;;;;;22.68;54.07;96331.98;588413;241;68856;-63
2023/03/26 00:25:33;;;;;;;;;;;;;;;22.66;52.65;96337.63;588411;238;66612;-63
2023/03/26 00:28:00;;;;;;;;;;;;;;;22.66;50.98;96353.70;588430;241;65193;-63
2023/03/26 00:30:28;;;;;;;;;;;;;;;22.68;53.80;96356.09;588389;241;68377;-63
2023/03/26 00:32:55;;;;;;;;;;;;;;;22.67;53.23;96360.66;588463;241;66449;-63
2023/03/26 00:35:23;;;;;;;;;;;;;;;22.66;53.25;96359.05;588403;241;62467;-63
2023/03/26 00:37:52;;;;;;;;;;;;;;;22.66;53.74;96347.55;588392;241;69937;-63
2023/03/26 00:40:19;;;;;;;;;;;;;;;22.65;53.37;96352.13;588341;241;66720;-63
2023/03/26 00:42:47;;;;;;;;;;;;;;;22.65;53.73;96354.01;588406;241;64065;-63
2023/03/26 00:45:15;;;;;;;;;;;;;;;22.65;53.22;96360.16;588368;241;67232;-61
2023/03/26 00:47:44;;;;;;;;;;;;;;;22.65;53.61;96365.52;588471;238;68639;-61
2023/03/26 00:50:14;;;;;;;;;;;;;;;22.65;52.21;96373.55;588417;241;62841;-61
2023/03/26 00:52:43;;;;;;;;;;;;;;;22.63;54.31;96378.39;588429;241;69341;-61
2023/03/26 00:55:12;;;;;;;;;;;;;;;22.64;55.21;96377.30;588325;240;68814;-61
2023/03/26 00:57:39;;;;;;;;;;;;;;;22.62;54.30;96384.86;588376;241;65043;-61
2023/03/26 01:00:09;;;;;;;;;;;;;;;22.62;53.38;96382.17;588431;241;66728;-61
2023/03/26 01:02:38;;;;;;;;;;;;;;;22.61;53.98;96389.39;590072;238;68852;-61
2023/03/26 01:05:24;;;;;;;;;;;;;;;22.62;54.42;96387.53;594288;238;65236;-61
2023/03/26 01:07:51;;;;;;;;;;;;;;;22.61;54.74;96378.68;594274;238;68875;-63
2023/03/26 01:10:21;;;;;;;;;;;;;;;22.60;54.83;96379.78;594261;238;68701;-63
2023/03/26 01:12:48;;;;;;;;;;;;;;;22.60;53.25;96392.38;594260;238;66032;-63
2023/03/26 01:15:16;;;;;;;;;;;;;;;22.60;56.18;96403.09;594337;238;68652;-63
2023/03/26 01:17:43;;;;;;;;;;;;;;;22.59;53.85;96380.09;594314;238;68515;-61
2023/03/26 01:20:15;;;;;;;;;;;;;;;22.59;54.48;96374.73;594265;238;65040;-61
2023/03/26 01:22:44;;;;;;;;;;;;;;;22.58;54.75;96376.59;594264;238;68567;-61
2023/03/26 01:25:11;;;;;;;;;;;;;;;22.59;53.71;96382.77;594240;238;68933;-61
2023/03/26 01:27:44;;;;;;;;;;;;;;;22.56;53.53;96376.12;594326;238;64851;-61
2023/03/26 01:30:30;;;;;;;;;;;;;;;22.56;53.66;96356.56;594326;238;69022;-61
2023/03/26 01:32:59;;;;;;;;;;;;;;;22.55;54.73;96355.77;594250;238;68591;-61
2023/03/26 01:35:47;;;;;;;;;;;;;;;22.55;51.83;96365.70;594165;238;65098;-61
2023/03/26 01:38:21;;;;;;;;;;;;;;;22.56;53.74;96356.56;594298;238;68647;-61
2023/03/26 01:40:55;;;;;;;;;;;;;;;22.55;55.19;96365.70;594273;238;68567;-63
2023/03/26 01:43:27;;;;;;;;;;;;;;;22.55;53.87;96368.38;594120;238;63830;-63
2023/03/26 01:45:56;;;;;;;;;;;;;;;22.54;52.45;96377.51;594345;238;66042;-63
2023/03/26 01:48:40;;;;;;;;;;;;;;;22.54;54.11;96378.30;594268;238;68879;-63
2023/03/26 01:51:09;;;;;;;;;;;;;;;22.53;53.13;96386.61;594264;238;63823;-62
2023/03/26 01:53:38;;;;;;;;;;;;;;;22.53;54.59;96383.94;594298;238;66985;-62
2023/03/26 01:56:09;;;;;;;;;;;;;;;22.52;55.10;96385.82;594227;238;66527;-62
2023/03/26 01:58:38;;;;;;;;;;;;;;;22.52;54.51;96385.03;594204;238;62769;-61
2023/03/26 02:01:07;;;;;;;;;;;;;;;22.52;54.22;96387.71;594243;238;69440;-61
2023/03/26 02:03:36;;;;;;;;;;;;;;;22.50;53.12;96388.00;593392;238;66461;-61
2023/03/26 02:06:14;;;;;;;;;;;;;;;22.52;54.89;96390.39;594260;238;65697;-61
2023/03/26 02:08:54;;;;;;;;;;;;;;;22.50;53.50;96384.53;592144;238;68803;-61
2023/03/26 02:11:22;;;;;;;;;;;;;;;22.50;53.60;96390.67;594206;238;66656;-61
2023/03/26 02:13:50;;;;;;;;;;;;;;;22.51;54.43;96396.84;594269;238;62770;-61
2023/03/26 02:16:19;;;;;;;;;;;;;;;22.50;53.52;96397.92;594309;238;66781;-62
2023/03/26 02:18:50;;;;;;;;;;;;;;;22.48;54.19;96390.20;594253;238;69464;-62
2023/03/26 02:21:24;;;;;;;;;;;;;;;22.49;53.77;96396.34;594267;238;63275;-64
2023/03/26 02:23:49;;;;;;;;;;;;;;;22.48;53.16;96403.58;594031;238;69010;-63
2023/03/26 02:26:18;;;;;;;;;;;;;;;22.48;54.93;96402.77;594242;238;69214;-63
2023/03/26 02:28:54;;;;;;;;;;;;;;;22.48;54.04;96405.44;594015;238;46312;-63
2023/03/26 02:31:25;;;;;;;;;;;;;;;22.48;54.87;96408.12;594280;238;68812;-63
2023/03/26 02:33:51;;;;;;;;;;;;;;;22.47;52.17;96409.22;594184;238;65840;-63
2023/03/26 02:36:20;;;;;;;;;;;;;;;22.47;54.49;96403.86;594257;238;65063;-63
2023/03/26 02:38:48;;;;;;;;;;;;;;;22.46;52.01;96413.00;594288;238;68899;-63
2023/03/26 02:41:16;;;;;;;;;;;;;;;22.45;53.54;96414.86;594270;238;68835;-63
2023/03/26 02:43:49;;;;;;;;;;;;;;;22.46;54.17;96413.00;593979;238;46194;-63
2023/03/26 02:46:17;;;;;;;;;;;;;;;22.45;53.52;96406.83;589169;238;69613;-63
2023/03/26 02:48:52;;;;;;;;;;;;;;;22.46;55.91;96415.67;594141;238;47044;-63
2023/03/26 02:51:21;;;;;;;;;;;;;;;22.45;54.80;96417.53;594201;238;42771;-63
2023/03/26 02:53:57;;;;;;;;;;;;;;;22.44;54.59;96423.20;592049;238;49670;-63
2023/03/26 02:56:42;;;;;;;;;;;;;;;22.44;54.81;96431.23;594376;238;39684;-63
2023/03/26 02:59:18;;;;;;;;;;;;;;;22.43;55.80;96426.98;593935;238;47677;-63
2023/03/26 03:01:47;;;;;;;;;;;;;;;22.42;54.07;96433.40;594357;238;44843;-63
2023/03/26 03:04:16;;;;;;;;;;;;;;;22.42;54.56;96441.44;588570;238;68626;-62
2023/03/26 03:06:44;;;;;;;;;;;;;;;22.43;54.19;96440.36;588380;241;62872;-61
2023/03/26 03:09:13;;;;;;;;;;;;;;;22.42;54.98;96436.87;588388;241;69454;-63
2023/03/26 03:11:45;;;;;;;;;;;;;;;22.43;54.65;96440.36;587749;240;48457;-63
2023/03/26 03:14:13;;;;;;;;;;;;;;;22.42;54.90;96446.79;588470;241;65787;-63
2023/03/26 03:16:41;;;;;;;;;;;;;;;22.40;52.74;96449.78;588424;241;67600;-63
2023/03/26 03:19:10;;;;;;;;;;;;;;;22.39;52.76;96440.92;588371;241;69310;-63
2023/03/26 03:21:39;;;;;;;;;;;;;;;22.38;54.18;96439.34;588426;241;63822;-63
2023/03/26 03:24:07;;;;;;;;;;;;;;;22.39;54.91;96443.59;588432;241;69510;-63
2023/03/26 03:26:37;;;;;;;;;;;;;;;22.39;55.02;96445.48;588416;239;50681;-63
2023/03/26 03:29:10;;;;;;;;;;;;;;;22.39;53.85;96445.48;587738;240;46322;-63
2023/03/26 03:31:40;;;;;;;;;;;;;;;22.38;55.06;96446.59;588365;241;69378;-61
2023/03/26 03:34:09;;;;;;;;;;;;;;;22.38;54.92;96454.63;588438;241;44762;-61
2023/03/26 03:36:37;;;;;;;;;;;;;;;22.38;55.81;96450.05;588390;241;65941;-61
2023/03/26 03:39:06;;;;;;;;;;;;;;;22.37;53.23;96459.19;588342;241;45120;-61
2023/03/26 03:41:34;;;;;;;;;;;;;;;22.37;54.07;96463.72;588448;238;69162;-61
2023/03/26 03:44:03;;;;;;;;;;;;;;;22.35;53.54;96464.03;588413;241;63055;-61
2023/03/26 03:46:31;;;;;;;;;;;;;;;22.36;53.50;96468.28;588387;241;68937;-61
2023/03/26 03:48:59;;;;;;;;;;;;;;;22.35;52.73;96469.38;588440;241;68325;-61
2023/03/26 03:51:28;;;;;;;;;;;;;;;22.35;54.08;96466.70;589401;239;44179;-61
2023/03/26 03:53:57;;;;;;;;;;;;;;;22.34;53.31;96462.45;588476;239;45950;-61
2023/03/26 03:56:34;;;;;;;;;;;;;;;22.34;53.57;96462.45;587710;240;50267;-61
2023/03/26 03:59:14;;;;;;;;;;;;;;;22.35;55.46;96472.06;587939;240;45019;-61
2023/03/26 04:01:42;;;;;;;;;;;;;;;22.34;55.51;96461.63;588424;241;66169;-62
2023/03/26 04:04:11;;;;;;;;;;;;;;;22.34;55.25;96459.77;593813;238;47380;-61
2023/03/26 04:06:46;;;;;;;;;;;;;;;22.33;53.27;96452.02;593484;238;46299;-61
2023/03/26 04:09:15;;;;;;;;;;;;;;;22.31;55.18;96449.63;594271;238;68736;-61
2023/03/26 04:11:43;;;;;;;;;;;;;;;22.33;54.32;96454.70;594307;238;66122;-61
2023/03/26 04:14:18;;;;;;;;;;;;;;;22.31;54.99;96449.63;593765;238;44728;-61
2023/03/26 04:16:56;;;;;;;;;;;;;;;22.31;53.09;96451.52;594117;238;50543;-61
2023/03/26 04:19:26;;;;;;;;;;;;;;;22.31;53.11;96454.19;594312;238;66697;-61
2023/03/26 04:21:54;;;;;;;;;;;;;;;22.30;54.75;96461.43;594246;238;62796;-61
2023/03/26 04:24:23;;;;;;;;;;;;;;;22.29;53.33;96465.20;594319;238;69164;-61
2023/03/26 04:26:59;;;;;;;;;;;;;;;22.30;55.89;96480.17;593475;238;51328;-63
2023/03/26 04:29:31;;;;;;;;;;;;;;;22.29;54.96;96473.23;593956;238;41801;-63
2023/03/26 04:32:05;;;;;;;;;;;;;;;22.30;54.67;96498.12;594289;238;66639;-63
2023/03/26 04:34:28;;;;;;;;;;;;;;;22.28;55.18;96494.93;594102;238;68723;-63
2023/03/26 04:37:04;;;;;;;;;;;;;;;22.27;54.97;96496.81;594049;238;45251;-63
2023/03/26 04:39:35;;;;;;;;;;;;;;;22.26;51.57;96500.59;594324;238;46398;-63
2023/03/26 04:42:20;;;;;;;;;;;;;;;22.26;52.81;96500.59;594429;238;39372;-63
2023/03/26 04:44:51;;;;;;;;;;;;;;;22.26;53.95;96511.30;593202;238;46151;-63
2023/03/26 04:47:19;;;;;;;;;;;;;;;22.26;54.64;96516.66;594269;238;69163;-63
2023/03/26 04:49:47;;;;;;;;;;;;;;;22.25;55.59;96507.02;594271;238;69149;-63
2023/03/26 04:52:15;;;;;;;;;;;;;;;22.25;53.62;96522.28;594291;238;65773;-63
2023/03/26 04:55:01;;;;;;;;;;;;;;;22.24;53.90;96526.84;594357;238;39287;-62
2023/03/26 04:57:32;;;;;;;;;;;;;;;22.24;54.71;96534.09;594314;238;67096;-62
2023/03/26 05:00:08;;;;;;;;;;;;;;;22.25;55.60;96539.13;593987;238;45235;-62
2023/03/26 05:02:32;;;;;;;;;;;;;;;22.24;54.02;96550.14;592612;238;69401;-62
2023/03/26 05:05:01;;;;;;;;;;;;;;;22.22;52.76;96534.36;588442;241;66426;-62
2023/03/26 05:07:29;;;;;;;;;;;;;;;22.23;54.57;96524.45;590944;240;65122;-62
2023/03/26 05:10:01;;;;;;;;;;;;;;;22.22;54.83;96526.33;591020;240;69506;-64
2023/03/26 05:12:38;;;;;;;;;;;;;;;22.22;56.04;96542.39;590866;240;47591;-64
2023/03/26 05:15:08;;;;;;;;;;;;;;;22.22;53.26;96533.58;588537;239;46125;-64
2023/03/26 05:17:47;;;;;;;;;;;;;;;22.22;55.01;96541.60;587734;240;50051;-63
2023/03/26 05:20:20;;;;;;;;;;;;;;;22.22;54.58;96541.60;588302;241;47083;-62
2023/03/26 05:22:49;;;;;;;;;;;;;;;22.20;53.86;96541.88;588405;241;65070;-62
2023/03/26 05:25:22;;;;;;;;;;;;;;;22.20;52.57;96544.55;588369;241;45415;-62
2023/03/26 05:27:50;;;;;;;;;;;;;;;22.19;54.26;96548.33;588436;241;66344;-63
2023/03/26 05:30:21;;;;;;;;;;;;;;;22.19;54.76;96552.89;588350;239;65069;-63
2023/03/26 05:32:51;;;;;;;;;;;;;;;22.19;55.50;96550.22;583367;241;48739;-63
2023/03/26 05:35:20;;;;;;;;;;;;;;;22.19;55.62;96558.24;588373;239;69384;-61
2023/03/26 05:37:50;;;;;;;;;;;;;;;22.19;54.36;96563.59;588228;241;65646;-61
2023/03/26 05:40:20;;;;;;;;;;;;;;;22.19;54.93;96563.59;588335;239;47863;-61
2023/03/26 05:42:50;;;;;;;;;;;;;;;22.17;54.61;96561.95;588353;241;48768;-61
2023/03/26 05:45:25;;;;;;;;;;;;;;;22.16;53.37;96548.87;587404;240;46420;-61
2023/03/26 05:47:55;;;;;;;;;;;;;;;22.17;55.13;96582.58;587695;241;69514;-61
2023/03/26 05:50:24;;;;;;;;;;;;;;;22.17;54.84;96569.20;588400;241;69292;-61
2023/03/26 05:52:53;;;;;;;;;;;;;;;22.16;53.90;96560.38;588413;241;42001;-61
2023/03/26 05:55:39;;;;;;;;;;;;;;;22.15;52.81;96556.12;588451;239;50986;-61
2023/03/26 05:58:25;;;;;;;;;;;;;;;22.14;53.39;96559.07;588533;241;40404;-61
2023/03/26 06:01:15;;;;;;;;;;;;;;;22.15;55.54;96560.66;587934;241;39071;-62
2023/03/26 06:03:46;;;;;;;;;;;;;;;22.14;54.93;96573.24;592160;238;46126;-62
2023/03/26 06:06:16;;;;;;;;;;;;;;;22.12;52.61;96558.55;594130;238;48389;-62
2023/03/26 06:08:52;;;;;;;;;;;;;;;22.12;55.46;96551.31;594062;238;43064;-62
2023/03/26 06:11:17;;;;;;;;;;;;;;;22.11;54.60;96551.62;593850;238;66624;-62
2023/03/26 06:13:45;;;;;;;;;;;;;;;22.11;54.62;96557.77;593864;238;68444;-60
2023/03/26 06:16:16;;;;;;;;;;;;;;;22.12;53.49;96550.53;593729;238;63209;-63
2023/03/26 06:18:45;;;;;;;;;;;;;;;22.12;51.90;96553.20;594035;238;46373;-64
2023/03/26 06:21:24;;;;;;;;;;;;;;;22.12;54.63;96553.20;594078;237;50504;-64
2023/03/26 06:23:54;;;;;;;;;;;;;;;22.11;53.05;96538.24;592975;238;44886;-64
2023/03/26 06:26:29;;;;;;;;;;;;;;;22.11;55.42;96543.59;587621;238;50133;-64
2023/03/26 06:29:04;;;;;;;;;;;;;;;22.10;54.77;96558.86;592647;238;46215;-62
2023/03/26 06:31:37;;;;;;;;;;;;;;;22.10;55.50;96523.28;593641;238;43913;-63
2023/03/26 06:34:24;;;;;;;;;;;;;;;22.10;54.88;96536.66;590186;239;50850;-63
2023/03/26 06:36:52;;;;;;;;;;;;;;;22.09;53.80;96521.67;594118;238;69421;-63
2023/03/26 06:39:21;;;;;;;;;;;;;;;22.08;54.40;96526.23;594293;238;65608;-62
2023/03/26 06:41:59;;;;;;;;;;;;;;;22.09;53.53;96532.37;589163;238;47470;-62
2023/03/26 06:44:45;;;;;;;;;;;;;;;22.08;54.65;96542.29;594406;238;40167;-63
2023/03/26 06:47:17;;;;;;;;;;;;;;;22.08;53.39;96546.86;583710;239;46849;-61
2023/03/26 06:49:56;;;;;;;;;;;;;;;22.08;55.72;96541.50;593886;238;49899;-62
2023/03/26 06:52:34;;;;;;;;;;;;;;;22.07;54.68;96561.30;593742;238;50495;-62
2023/03/26 06:55:20;;;;;;;;;;;;;;;22.06;55.00;96538.31;593760;238;40236;-60
2023/03/26 06:57:51;;;;;;;;;;;;;;;22.07;54.54;96539.89;593460;238;51370;-61
2023/03/26 07:00:21;;;;;;;;;;;;;;;22.06;53.46;96549.80;574405;238;49750;-61
2023/03/26 07:03:07;;;;;;;;;;;;;;;22.07;56.25;96547.92;591373;238;39069;-62
2023/03/26 07:05:52;;;;;;;;;;;;;;;22.06;54.94;96555.16;588518;241;44297;-61
2023/03/26 07:08:38;;;;;;;;;;;;;;;22.06;55.01;96552.48;588390;241;41776;-61
2023/03/26 07:11:25;;;;;;;;;;;;;;;22.07;55.33;96550.59;588538;241;41118;-62
2023/03/26 07:13:58;;;;;;;;;;;;;;;22.05;52.16;96548.23;587716;240;50892;-60
2023/03/26 07:16:44;;;;;;;;;;;;;;;22.07;55.67;96550.59;588485;241;40324;-61
2023/03/26 07:19:22;;;;;;;;;;;;;;;22.06;54.08;96544.45;587567;241;43592;-60
2023/03/26 07:21:50;;;;;;;;;;;;;;;22.06;56.19;96539.10;588307;241;69447;-60
2023/03/26 07:24:23;;;;;;;;;;;;;;;22.06;55.17;96549.02;587648;240;52268;-60
2023/03/26 07:27:09;;;;;;;;;;;;;;;22.06;56.54;96549.80;587132;240;47671;-61
2023/03/26 07:29:46;;;;;;;;;;;;;;;22.06;56.60;96544.45;588007;241;47001;-61
2023/03/26 07:32:36;;;;;;;;;;;;;;;22.04;52.90;96533.23;585864;241;41634;-61
2023/03/26 07:35:07;;;;;;;;;;;;;;;22.07;55.50;96534.54;586658;241;47090;-61
2023/03/26 07:37:56;;;;;;;;;;;;;;;22.06;55.21;96531.08;587321;240;49533;-61
2023/03/26 07:40:45;;;;;;;;;;;;;;;22.06;55.46;96533.75;587428;240;49260;-61
2023/03/26 07:43:16;;;;;;;;;;;;;;;22.06;55.91;96538.31;586814;241;47673;-61
2023/03/26 07:46:01;;;;;;;;;;;;;;;22.05;55.79;96540.20;587674;240;50854;-61
2023/03/26 07:48:41;;;;;;;;;;;;;;;22.06;55.66;96519.58;588542;239;47630;-62
2023/03/26 07:51:11;;;;;;;;;;;;;;;22.05;55.19;96531.38;588456;241;43684;-62
2023/03/26 07:53:58;;;;;;;;;;;;;;;22.05;53.81;96526.03;586934;240;51120;-62
2023/03/26 07:56:55;;;;;;;;;;;;;;;22.05;53.84;96520.67;587832;241;50608;-61
2023/03/26 07:59:45;;;;;;;;;;;;;;;22.06;54.65;96522.26;588215;241;48048;-61
2023/03/26 08:02:19;;;;;;;;;;;;;;;22.05;55.86;96515.33;588164;239;50803;-61
2023/03/26 08:04:53;;;;;;;;;;;;;;;22.05;56.69;96504.63;588281;241;46814;-62
2023/03/26 08:07:30;;;;;;;;;;;;;;;22.04;55.69;96514.50;587573;241;46073;-61
2023/03/26 08:10:13;;;;;;;;;;;;;;;22.03;53.48;96518.28;587818;240;50434;-61
2023/03/26 08:12:59;;;;;;;;;;;;;;;22.03;56.50;96520.95;587500;241;49303;-61
2023/03/26 08:15:29;;;;;;;;;;;;;;;22.03;56.01;96515.60;588445;240;65389;-62
2023/03/26 08:17:58;;;;;;;;;;;;;;;22.03;55.61;96509.46;587965;241;66726;-62
2023/03/26 08:20:44;;;;;;;;;;;;;;;22.03;55.63;96514.81;587924;241;66217;-62
2023/03/26 08:23:13;;;;;;;;;;;;;;;22.04;55.15;96511.04;588068;241;65358;-61
2023/03/26 08:25:43;;;;;;;;;;;;;;;22.04;56.41;96521.74;588420;241;69287;-60
2023/03/26 08:28:15;;;;;;;;;;;;;;;22.04;55.38;96511.04;581880;241;67492;-62
2023/03/26 08:30:45;;;;;;;;;;;;;;;22.02;55.05;96508.67;587050;241;61793;-60
2023/03/26 08:33:15;;;;;;;;;;;;;;;22.02;53.87;96510.56;588431;241;68624;-61
2023/03/26 08:35:43;;;;;;;;;;;;;;;22.04;56.53;96524.42;588405;241;66340;-60
2023/03/26 08:38:12;;;;;;;;;;;;;;;22.04;54.23;96519.06;588406;241;63024;-61
2023/03/26 08:40:44;;;;;;;;;;;;;;;22.03;56.47;96520.16;587734;241;68519;-61
2023/03/26 08:43:16;;;;;;;;;;;;;;;22.02;53.76;96521.26;584050;237;69584;-61
2023/03/26 08:46:02;;;;;;;;;;;;;;;22.03;54.93;96528.19;587618;240;63011;-61
2023/03/26 08:48:47;;;;;;;;;;;;;;;22.02;56.18;96540.78;589114;237;68300;-61
2023/03/26 08:51:37;;;;;;;;;;;;;;;22.02;53.86;96529.28;584676;237;66244;-60
2023/03/26 08:54:16;;;;;;;;;;;;;;;22.01;56.55;96530.35;582368;240;65268;-61
2023/03/26 08:56:47;;;;;;;;;;;;;;;22.00;53.63;96532.23;582794;242;69832;-61
2023/03/26 08:59:16;;;;;;;;;;;;;;;22.01;54.95;96525.00;582428;242;68133;-61
2023/03/26 09:01:49;;;;;;;;;;;;;;;22.00;54.54;96544.83;582271;243;63177;-61
2023/03/26 09:04:19;;;;;;;;;;;;;;;22.00;56.56;96534.91;574680;242;68132;-61
2023/03/26 09:06:57;;;;;;;;;;;;;;;21.99;53.74;96516.46;583644;242;68570;-61
2023/03/26 09:09:36;;;;;;;;;;;;;;;21.99;53.74;96543.22;574605;242;64088;-61
2023/03/26 09:12:21;;;;;;;;;;;;;;;21.99;55.98;96552.06;584586;242;68476;-61
2023/03/26 09:14:54;;;;;;;;;;;;;;;21.99;56.39;96538.69;583669;242;68311;-61
2023/03/26 09:17:32;;;;;;;;;;;;;;;21.99;54.94;96529.84;584473;242;65306;-61
2023/03/26 09:20:02;;;;;;;;;;;;;;;21.98;53.72;96526.37;584432;242;68961;-61
2023/03/26 09:22:49;;;;;;;;;;;;;;;21.98;56.29;96542.42;584702;242;68400;-61
2023/03/26 09:25:34;;;;;;;;;;;;;;;21.98;54.78;96541.63;584751;242;63837;-61
2023/03/26 09:28:20;;;;;;;;;;;;;;;21.98;53.79;96541.63;584385;242;65918;-61
2023/03/26 09:30:55;;;;;;;;;;;;;;;21.99;54.71;96543.22;584722;242;66450;-61
2023/03/26 09:33:41;;;;;;;;;;;;;;;21.98;57.23;96528.26;584627;242;65082;-61
2023/03/26 09:36:25;;;;;;;;;;;;;;;21.96;55.25;96533.88;584388;242;68851;-64
2023/03/26 09:38:59;;;;;;;;;;;;;;;21.95;52.99;96521.60;583980;242;66361;-63
2023/03/26 09:41:34;;;;;;;;;;;;;;;21.95;55.35;96511.69;584364;242;65351;-63
2023/03/26 09:44:19;;;;;;;;;;;;;;;21.95;54.48;96522.39;584071;242;68568;-63
2023/03/26 09:46:52;;;;;;;;;;;;;;;21.95;55.86;96517.04;584653;242;66476;-63
2023/03/26 09:49:23;;;;;;;;;;;;;;;21.95;57.01;96509.02;584522;242;65117;-63
2023/03/26 09:52:02;;;;;;;;;;;;;;;21.94;55.43;96512.78;583858;241;70812;-63
2023/03/26 09:54:33;;;;;;;;;;;;;;;21.93;55.74;96505.86;584167;243;46048;-63
2023/03/26 09:57:17;;;;;;;;;;;;;;;21.94;54.79;96520.81;583841;242;65406;-63
2023/03/26 09:59:49;;;;;;;;;;;;;;;21.94;55.61;96512.00;584480;242;66197;-63
2023/03/26 10:02:34;;;;;;;;;;;;;;;21.94;55.54;96512.00;584474;241;66548;-64
2023/03/26 10:05:03;;;;;;;;;;;;;;;21.94;54.56;96509.32;584629;242;65193;-63
2023/03/26 10:07:39;;;;;;;;;;;;;;;21.94;56.17;96512.00;584410;242;69478;-63
2023/03/26 10:10:13;;;;;;;;;;;;;;;21.93;55.86;96497.83;584226;242;68761;-63
2023/03/26 10:12:42;;;;;;;;;;;;;;;21.93;55.92;96503.18;584293;242;65244;-63
2023/03/26 10:15:15;;;;;;;;;;;;;;;21.92;55.72;96500.78;584151;242;68572;-63
2023/03/26 10:17:50;;;;;;;;;;;;;;;21.93;55.87;96497.01;583285;242;68911;-63
2023/03/26 10:20:19;;;;;;;;;;;;;;;21.91;55.01;96502.66;583837;242;65024;-63
2023/03/26 10:22:49;;;;;;;;;;;;;;;21.91;54.73;96508.02;584624;242;68541;-64
2023/03/26 10:25:18;;;;;;;;;;;;;;;21.91;55.36;96501.87;584613;242;66495;-63
2023/03/26 10:27:59;;;;;;;;;;;;;;;21.90;52.67;96473.52;584539;242;44916;-64
2023/03/26 10:30:44;;;;;;;;;;;;;;;21.90;55.39;96471.63;584384;242;68561;-64
2023/03/26 10:33:19;;;;;;;;;;;;;;;21.91;55.85;96477.80;584315;242;66355;-64
2023/03/26 10:35:54;;;;;;;;;;;;;;;21.90;54.55;96462.81;584588;242;62919;-63
2023/03/26 10:38:23;;;;;;;;;;;;;;;21.90;54.58;96460.92;584450;242;66334;-64
2023/03/26 10:40:55;;;;;;;;;;;;;;;21.90;56.14;96471.63;584469;242;66366;-63
2023/03/26 10:43:35;;;;;;;;;;;;;;;21.90;55.75;96452.11;584657;242;64988;-63
2023/03/26 10:46:13;;;;;;;;;;;;;;;21.89;55.37;96447.86;584619;242;66056;-63
2023/03/26 10:48:48;;;;;;;;;;;;;;;21.89;56.00;96442.52;584617;242;68405;-63
2023/03/26 10:51:26;;;;;;;;;;;;;;;21.89;54.53;96453.21;584614;242;65003;-63
2023/03/26 10:54:04;;;;;;;;;;;;;;;21.89;54.72;96439.83;584681;242;68829;-63
2023/03/26 10:56:34;;;;;;;;;;;;;;;21.90;56.72;96438.73;584651;242;69156;-63
2023/03/26 10:59:03;;;;;;;;;;;;;;;21.88;55.18;96425.67;584641;242;65078;-63
2023/03/26 11:01:41;;;;;;;;;;;;;;;21.89;55.93;96413.08;584637;242;68338;-64
2023/03/26 11:04:22;;;;;;;;;;;;;;;21.88;54.58;96444.39;584577;241;66296;-63
2023/03/26 11:06:54;;;;;;;;;;;;;;;21.88;55.14;96425.67;584515;242;65310;-63
2023/03/26 11:09:26;;;;;;;;;;;;;;;21.88;54.59;96427.52;584575;242;66057;-63
2023/03/26 11:11:56;;;;;;;;;;;;;;;21.87;54.37;96432.09;583560;242;66094;-63
2023/03/26 11:14:38;;;;;;;;;;;;;;;21.86;54.65;96411.78;584742;242;65043;-63
2023/03/26 11:17:16;;;;;;;;;;;;;;;21.87;56.13;96413.36;584654;242;68387;-63
2023/03/26 11:19:57;;;;;;;;;;;;;;;21.87;55.11;96397.31;584524;242;68583;-61
2023/03/26 11:22:26;;;;;;;;;;;;;;;21.86;53.88;96398.41;584639;242;70183;-63
2023/03/26 11:24:55;;;;;;;;;;;;;;;21.86;55.71;96401.08;584586;242;65736;-61
2023/03/26 11:27:34;;;;;;;;;;;;;;;21.86;55.57;96393.06;584513;242;67994;-61
2023/03/26 11:30:06;;;;;;;;;;;;;;;21.86;54.56;96406.43;584532;241;64885;-61
2023/03/26 11:32:45;;;;;;;;;;;;;;;21.86;55.22;96398.41;584431;242;68320;-61
2023/03/26 11:35:17;;;;;;;;;;;;;;;21.85;55.45;96383.45;584656;242;68147;-61
2023/03/26 11:37:46;;;;;;;;;;;;;;;21.86;55.81;96393.06;584543;242;64890;-61
2023/03/26 11:40:15;;;;;;;;;;;;;;;21.86;54.53;96384.25;584623;242;68788;-61
2023/03/26 11:42:43;;;;;;;;;;;;;;;21.85;56.09;96387.98;584769;242;66461;-62
2023/03/26 11:45:15;;;;;;;;;;;;;;;21.85;55.19;96385.31;584741;242;64919;-62
2023/03/26 11:47:44;;;;;;;;;;;;;;;21.84;55.12;96379.17;584581;242;68378;-62
2023/03/26 11:50:16;;;;;;;;;;;;;;;21.84;54.60;96387.20;584738;242;68583;-62
2023/03/26 11:52:44;;;;;;;;;;;;;;;21.83;53.80;96372.25;584485;242;63053;-62
2023/03/26 11:55:11;;;;;;;;;;;;;;;21.85;54.37;96374.61;584593;242;66513;-62
2023/03/26 11:57:41;;;;;;;;;;;;;;;21.84;55.41;96373.83;584603;242;66292;-62
2023/03/26 12:00:20;;;;;;;;;;;;;;;21.85;53.83;96377.28;584572;242;65088;-62
2023/03/26 12:02:47;;;;;;;;;;;;;;;21.83;55.36;96377.59;585953;241;66064;-62
2023/03/26 12:05:19;;;;;;;;;;;;;;;21.84;55.33;96370.36;588273;241;51630;-62
2023/03/26 12:07:48;;;;;;;;;;;;;;;21.83;54.12;96380.27;588320;241;65116;-62
2023/03/26 12:10:26;;;;;;;;;;;;;;;21.82;54.02;96370.64;588394;241;68782;-62
2023/03/26 12:12:55;;;;;;;;;;;;;;;21.82;55.23;96369.84;588443;240;66423;-62
2023/03/26 12:15:24;;;;;;;;;;;;;;;21.82;53.43;96375.20;588174;241;65154;-62
2023/03/26 12:17:55;;;;;;;;;;;;;;;21.83;55.27;96379.48;588127;241;68589;-62
2023/03/26 12:20:26;;;;;;;;;;;;;;;21.82;56.08;96362.61;588376;241;68481;-62
2023/03/26 12:22:58;;;;;;;;;;;;;;;21.81;54.23;96355.69;588201;240;63027;-62
2023/03/26 12:25:28;;;;;;;;;;;;;;;21.82;54.10;96354.59;587969;241;71543;-62
2023/03/26 12:28:04;;;;;;;;;;;;;;;21.81;55.11;96357.57;588263;241;67574;-60
2023/03/26 12:30:33;;;;;;;;;;;;;;;21.81;53.87;96362.92;587975;241;63122;-61
2023/03/26 12:33:02;;;;;;;;;;;;;;;21.81;54.52;96362.92;588048;241;68758;-61
2023/03/26 12:35:33;;;;;;;;;;;;;;;21.81;55.57;96352.22;587966;241;68674;-61
2023/03/26 12:38:18;;;;;;;;;;;;;;;21.80;55.28;96343.41;588153;241;65089;-61
2023/03/26 12:40:47;;;;;;;;;;;;;;;21.80;54.17;96337.24;588052;241;68767;-61
2023/03/26 12:43:28;;;;;;;;;;;;;;;21.79;54.90;96336.45;588069;240;66629;-61
2023/03/26 12:45:57;;;;;;;;;;;;;;;21.79;54.04;96352.50;587985;241;63061;-61
2023/03/26 12:48:25;;;;;;;;;;;;;;;21.78;53.47;96342.90;587977;241;66667;-61
2023/03/26 12:50:58;;;;;;;;;;;;;;;21.78;53.71;96336.77;588001;241;69018;-61
2023/03/26 12:53:47;;;;;;;;;;;;;;;21.79;55.14;96341.02;588197;241;64917;-62
2023/03/26 12:56:26;;;;;;;;;;;;;;;21.78;55.44;96342.90;587505;241;68791;-62
2023/03/26 12:59:11;;;;;;;;;;;;;;;21.78;55.54;96334.09;588284;241;69013;-62
2023/03/26 13:01:40;;;;;;;;;;;;;;;21.78;54.18;96328.74;588374;241;65273;-62
2023/03/26 13:04:16;;;;;;;;;;;;;;;21.76;53.38;96334.37;584788;241;66648;-62
2023/03/26 13:06:54;;;;;;;;;;;;;;;21.76;54.01;96336.25;582681;242;68595;-60
2023/03/26 13:09:24;;;;;;;;;;;;;;;21.77;56.39;96333.30;584614;242;65259;-61
2023/03/26 13:11:53;;;;;;;;;;;;;;;21.77;55.68;96327.95;584652;242;68760;-61
2023/03/26 13:14:22;;;;;;;;;;;;;;;21.76;55.66;96315.64;584705;242;66689;-61
2023/03/26 13:16:58;;;;;;;;;;;;;;;21.76;53.05;96312.19;584699;242;65306;-61
2023/03/26 13:19:33;;;;;;;;;;;;;;;21.76;55.80;96314.86;584819;242;66372;-61